Time;durP1;ratioP1;P1;durP2;ratioP2;P2;SDS_P1;SDS_P2;PMS_P1;PMS_P2;Temp;Humidity;BMP_temperature;BMP_pressure;BME280_temperature;BME280_humidity;BME280_pressure;Samples;Min_cycle;Max_cycle;Signal;HPM_P1;HPM_P2
2022/01/07 00:01:43;;;;;;;18.40;6.15;;;4.50;99.90;;;;;;4736225;30;20131;-80
2022/01/07 00:04:08;;;;;;;23.50;7.10;;;4.50;99.90;;;;;;4752634;30;20545;-81
2022/01/07 00:06:34;;;;;;;19.88;6.40;;;4.50;99.90;;;;;;4736606;30;20083;-81
2022/01/07 00:09:00;;;;;;;15.50;6.25;;;4.50;99.90;;;;;;4737025;30;20139;-79
2022/01/07 00:11:26;;;;;;;20.52;6.32;;;4.50;99.90;;;;;;4736998;30;20048;-79
2022/01/07 00:13:51;;;;;;;16.83;6.15;;;4.60;99.90;;;;;;4737153;30;20052;-81
2022/01/07 00:16:17;;;;;;;21.70;7.13;;;4.40;99.90;;;;;;4736899;30;20499;-81
2022/01/07 00:18:44;;;;;;;16.50;6.03;;;4.40;99.90;;;;;;4751596;30;20456;-81
2022/01/07 00:21:11;;;;;;;17.63;6.18;;;4.60;99.90;;;;;;4718945;30;20128;-82
2022/01/07 00:23:40;;;;;;;22.35;6.93;;;4.40;99.90;;;;;;4719202;30;20084;-79
2022/01/07 00:26:08;;;;;;;16.23;6.53;;;4.40;99.90;;;;;;4704818;30;20055;-79
2022/01/07 00:28:34;;;;;;;18.25;6.78;;;4.40;99.90;;;;;;4734886;30;20251;-81
2022/01/07 00:31:00;;;;;;;19.88;6.97;;;4.80;99.90;;;;;;4704794;30;20091;-82
2022/01/07 00:33:26;;;;;;;19.67;6.60;;;4.40;99.90;;;;;;4735092;30;20052;-82
2022/01/07 00:35:52;;;;;;;20.40;6.80;;;4.40;99.90;;;;;;4719157;30;20462;-82
2022/01/07 00:38:18;;;;;;;15.27;6.30;;;5.00;99.90;;;;;;4746122;30;20050;-82
2022/01/07 00:40:44;;;;;;;21.65;6.95;;;5.00;99.90;;;;;;4736870;30;20036;-82
2022/01/07 00:43:10;;;;;;;21.02;6.40;;;4.50;99.90;;;;;;4736649;30;20457;-81
2022/01/07 00:45:36;;;;;;;16.00;6.45;;;4.20;99.90;;;;;;4736434;30;20052;-81
2022/01/07 00:48:02;;;;;;;17.17;6.68;;;4.20;99.90;;;;;;4736543;30;20044;-81
2022/01/07 00:50:30;;;;;;;24.20;7.40;;;4.20;99.90;;;;;;4737077;30;20055;-81
2022/01/07 00:52:56;;;;;;;17.67;7.22;;;4.20;99.90;;;;;;4736198;30;20040;-81
2022/01/07 00:55:23;;;;;;;22.02;7.10;;;4.30;99.90;;;;;;4736746;30;20131;-81
2022/01/07 00:57:49;;;;;;;17.85;7.13;;;4.60;99.90;;;;;;4721795;30;20485;-81
2022/01/07 01:00:20;;;;;;;15.23;6.22;;;4.40;99.90;;;;;;4721795;30;20058;-81
2022/01/07 01:02:46;;;;;;;19.15;6.97;;;4.00;99.90;;;;;;4736363;30;20116;-81
2022/01/07 01:05:13;;;;;;;19.98;6.63;;;4.00;99.90;;;;;;4736130;30;20096;-81
2022/01/07 01:07:39;;;;;;;19.83;7.15;;;4.00;99.90;;;;;;4736364;30;20068;-81
2022/01/07 01:10:07;;;;;;;22.73;7.18;;;4.40;99.90;;;;;;4735784;30;20145;-81
2022/01/07 01:12:38;;;;;;;24.77;7.13;;;4.00;99.90;;;;;;4736418;30;20059;-81
2022/01/07 01:15:06;;;;;;;23.75;7.07;;;3.90;99.90;;;;;;4736414;30;20113;-81
2022/01/07 01:17:35;;;;;;;20.85;6.85;;;3.90;99.90;;;;;;4738679;30;20052;-81
2022/01/07 01:20:02;;;;;;;22.70;7.47;;;3.90;99.90;;;;;;4725216;30;20048;-81
2022/01/07 01:22:28;;;;;;;21.75;6.93;;;3.90;99.90;;;;;;4739787;30;20048;-81
2022/01/07 01:24:53;;;;;;;17.08;6.80;;;4.60;99.90;;;;;;4755284;30;20051;-81
2022/01/07 01:27:19;;;;;;;20.10;7.03;;;4.50;99.90;;;;;;4724778;30;20505;-82
2022/01/07 01:29:45;;;;;;;22.63;7.53;;;3.80;99.90;;;;;;4754237;30;20114;-82
2022/01/07 01:32:11;;;;;;;16.25;6.70;;;3.80;99.90;;;;;;4739576;30;20059;-81
2022/01/07 01:34:36;;;;;;;15.63;6.63;;;3.80;99.90;;;;;;4739459;30;20059;-82
2022/01/07 01:37:02;;;;;;;19.98;6.40;;;3.80;99.90;;;;;;4738149;30;20048;-82
2022/01/07 01:39:28;;;;;;;18.23;7.75;;;3.80;99.90;;;;;;4739320;30;20105;-82
2022/01/07 01:41:54;;;;;;;17.85;6.72;;;3.80;99.90;;;;;;4739267;30;20040;-82
2022/01/07 01:44:20;;;;;;;17.17;6.93;;;3.80;99.90;;;;;;4739362;30;20102;-82
2022/01/07 01:46:46;;;;;;;16.02;6.53;;;3.80;99.90;;;;;;4739038;30;20052;-82
2022/01/07 01:49:11;;;;;;;16.58;6.97;;;3.80;99.90;;;;;;4739197;30;20048;-81
2022/01/07 01:51:37;;;;;;;15.38;6.90;;;4.10;99.90;;;;;;4753790;30;20051;-82
2022/01/07 01:54:05;;;;;;;17.13;6.97;;;3.70;99.90;;;;;;4723540;30;20044;-82
2022/01/07 01:56:33;;;;;;;18.60;6.43;;;4.60;99.90;;;;;;4753809;30;20051;-82
2022/01/07 01:58:59;;;;;;;18.38;6.88;;;3.70;99.90;;;;;;4739261;30;20383;-81
2022/01/07 02:01:25;;;;;;;22.77;7.50;;;3.70;99.90;;;;;;4738868;30;20497;-81
2022/01/07 02:03:50;;;;;;;16.17;7.35;;;3.70;99.90;;;;;;4739100;30;20191;-81
2022/01/07 02:06:16;;;;;;;17.00;7.22;;;3.70;99.90;;;;;;4738622;30;20194;-81
2022/01/07 02:08:43;;;;;;;20.48;7.20;;;3.90;99.90;;;;;;4738744;30;20063;-81
2022/01/07 02:11:09;;;;;;;14.88;6.82;;;3.70;99.90;;;;;;4738358;30;20048;-81
2022/01/07 02:13:35;;;;;;;15.75;6.40;;;3.70;99.90;;;;;;4738892;30;20139;-82
2022/01/07 02:16:01;;;;;;;17.90;6.28;;;3.70;99.90;;;;;;4738722;30;20048;-82
2022/01/07 02:18:26;;;;;;;18.45;7.15;;;3.60;99.90;;;;;;4724661;30;20053;-81
2022/01/07 02:20:52;;;;;;;16.45;6.70;;;3.60;99.90;;;;;;4738981;30;20101;-81
2022/01/07 02:23:19;;;;;;;13.95;7.35;;;3.60;99.90;;;;;;4753534;30;20094;-80
2022/01/07 02:25:45;;;;;;;11.27;6.18;;;3.60;99.90;;;;;;4738790;30;20060;-81
2022/01/07 02:28:12;;;;;;;17.05;7.70;;;3.60;99.90;;;;;;4723779;30;20075;-81
2022/01/07 02:30:38;;;;;;;14.52;7.45;;;4.10;99.90;;;;;;4723322;30;20044;-81
2022/01/07 02:33:04;;;;;;;18.75;6.65;;;3.60;99.90;;;;;;4724509;30;20378;-81
2022/01/07 02:35:33;;;;;;;14.88;7.20;;;3.50;99.90;;;;;;4738597;30;20110;-81
2022/01/07 02:37:59;;;;;;;16.55;7.00;;;4.40;99.90;;;;;;4723955;30;20509;-81
2022/01/07 02:40:25;;;;;;;18.75;7.65;;;3.70;99.90;;;;;;4738245;30;20114;-81
2022/01/07 02:42:52;;;;;;;13.07;6.65;;;3.50;99.90;;;;;;4738400;30;20048;-80
2022/01/07 02:45:18;;;;;;;14.57;6.75;;;3.70;99.90;;;;;;4751684;30;20493;-80
2022/01/07 02:47:50;;;;;;;23.30;7.80;;;4.50;99.90;;;;;;4738209;30;20117;-81
2022/01/07 02:50:18;;;;;;;13.63;7.10;;;4.20;99.90;;;;;;4753365;30;20040;-80
2022/01/07 02:52:44;;;;;;;17.95;7.43;;;3.50;99.90;;;;;;4738091;30;20052;-80
2022/01/07 02:55:10;;;;;;;15.52;6.93;;;3.90;99.90;;;;;;4737979;30;20075;-80
2022/01/07 02:57:36;;;;;;;13.55;7.15;;;3.60;99.90;;;;;;4738317;30;20048;-80
2022/01/07 03:00:02;;;;;;;14.85;6.88;;;3.60;99.90;;;;;;4738062;30;20113;-81
2022/01/07 03:02:28;;;;;;;12.75;6.32;;;3.60;99.90;;;;;;4722820;30;20049;-80
2022/01/07 03:04:54;;;;;;;15.25;7.00;;;3.60;99.90;;;;;;4720934;30;20047;-80
2022/01/07 03:07:20;;;;;;;18.23;7.93;;;3.60;99.90;;;;;;4720438;30;20060;-80
2022/01/07 03:09:45;;;;;;;13.30;7.57;;;3.60;99.90;;;;;;4735314;30;20150;-80
2022/01/07 03:12:11;;;;;;;12.13;7.80;;;3.60;99.90;;;;;;4720763;30;20518;-80
2022/01/07 03:14:37;;;;;;;18.30;8.07;;;3.60;99.90;;;;;;4735148;30;20127;-81
2022/01/07 03:17:03;;;;;;;13.40;7.72;;;4.10;99.90;;;;;;4742485;30;20051;-80
2022/01/07 03:19:28;;;;;;;14.85;7.40;;;3.60;99.90;;;;;;4737825;30;20056;-80
2022/01/07 03:21:54;;;;;;;10.82;7.28;;;3.60;99.90;;;;;;4738098;30;20130;-80
2022/01/07 03:24:20;;;;;;;17.25;8.38;;;3.60;99.90;;;;;;4738106;30;20048;-81
2022/01/07 03:26:46;;;;;;;14.93;7.53;;;3.50;99.90;;;;;;4723293;30;20123;-81
2022/01/07 03:29:11;;;;;;;12.38;8.10;;;3.60;99.90;;;;;;4736958;30;20052;-80
2022/01/07 03:31:37;;;;;;;15.38;7.88;;;3.60;99.90;;;;;;4737979;30;20052;-80
2022/01/07 03:34:03;;;;;;;14.00;8.43;;;3.50;99.90;;;;;;4753545;30;20127;-80
2022/01/07 03:36:28;;;;;;;14.35;8.23;;;3.60;99.90;;;;;;4753435;30;20083;-81
2022/01/07 03:38:54;;;;;;;12.10;7.90;;;3.60;99.90;;;;;;4722609;30;20088;-80
2022/01/07 03:41:20;;;;;;;14.60;7.97;;;3.60;99.90;;;;;;4736878;30;20144;-80
2022/01/07 03:43:46;;;;;;;16.90;7.97;;;3.60;99.90;;;;;;4753390;30;20401;-80
2022/01/07 03:46:11;;;;;;;11.75;7.82;;;3.60;99.90;;;;;;4736515;30;20397;-81
2022/01/07 03:48:37;;;;;;;16.15;8.07;;;3.60;99.90;;;;;;4722822;30;20044;-80
2022/01/07 03:51:03;;;;;;;14.57;7.85;;;3.60;99.90;;;;;;4756510;24;20159;-81
2022/01/07 03:53:29;;;;;;;17.17;8.57;;;4.30;99.90;;;;;;4842170;29;20060;-80
2022/01/07 03:55:54;;;;;;;18.63;9.10;;;3.60;99.90;;;;;;4826996;29;20110;-80
2022/01/07 03:58:20;;;;;;;15.77;8.77;;;3.60;99.90;;;;;;4841790;29;20110;-80
2022/01/07 04:00:46;;;;;;;15.48;8.73;;;4.00;99.90;;;;;;4841754;29;20046;-81
2022/01/07 04:03:16;;;;;;;17.15;9.25;;;3.60;99.90;;;;;;4842027;29;20130;-81
2022/01/07 04:05:42;;;;;;;13.75;9.93;;;3.80;99.90;;;;;;4841735;29;20045;-80
2022/01/07 04:08:08;;;;;;;15.32;9.20;;;3.60;99.90;;;;;;4841897;29;20048;-80
2022/01/07 04:10:35;;;;;;;12.02;8.50;;;3.60;99.90;;;;;;4840936;29;20583;-80
2022/01/07 04:13:01;;;;;;;14.73;9.45;;;3.60;99.90;;;;;;4841686;29;20055;-80
2022/01/07 04:15:27;;;;;;;16.17;9.35;;;3.60;99.90;;;;;;4841434;29;20053;-80
2022/01/07 04:17:54;;;;;;;13.75;9.05;;;3.60;99.90;;;;;;4826546;29;20198;-80
2022/01/07 04:20:27;;;;;;;14.30;8.98;;;3.60;99.90;;;;;;4841417;29;20456;-81
2022/01/07 04:22:53;;;;;;;16.23;9.98;;;3.60;99.90;;;;;;4826373;29;20056;-80
2022/01/07 04:25:21;;;;;;;13.70;8.38;;;3.60;99.90;;;;;;4822470;29;20042;-81
2022/01/07 04:27:52;;;;;;;16.05;8.93;;;3.90;99.90;;;;;;4820491;29;20061;-81
2022/01/07 04:30:19;;;;;;;14.77;8.93;;;3.60;99.90;;;;;;4805271;29;20404;-81
2022/01/07 04:32:45;;;;;;;15.88;8.25;;;3.60;99.90;;;;;;4806296;29;20046;-80
2022/01/07 04:35:12;;;;;;;15.35;8.88;;;3.60;99.90;;;;;;4805022;29;20042;-80
2022/01/07 04:37:39;;;;;;;11.38;8.52;;;3.60;99.90;;;;;;4805166;29;20043;-80
2022/01/07 04:40:07;;;;;;;17.33;8.95;;;3.60;99.90;;;;;;4804864;29;20126;-80
2022/01/07 04:42:33;;;;;;;11.40;8.82;;;3.60;99.90;;;;;;4819461;29;20076;-81
2022/01/07 04:44:59;;;;;;;12.85;8.25;;;3.60;99.90;;;;;;4826146;29;20089;-81
2022/01/07 04:47:26;;;;;;;13.10;8.52;;;4.10;99.90;;;;;;4826093;29;20049;-81
2022/01/07 04:49:51;;;;;;;14.45;8.07;;;3.60;99.90;;;;;;4826590;29;20045;-81
2022/01/07 04:52:20;;;;;;;11.82;8.43;;;3.60;99.90;;;;;;4841010;29;20153;-81
2022/01/07 04:54:46;;;;;;;12.50;8.13;;;3.60;99.90;;;;;;4826183;29;20057;-81
2022/01/07 04:57:12;;;;;;;12.73;8.80;;;3.60;99.90;;;;;;4825246;29;20140;-81
2022/01/07 04:59:38;;;;;;;13.57;9.20;;;3.60;99.90;;;;;;4825947;29;20042;-81
2022/01/07 05:02:04;;;;;;;12.70;8.73;;;3.70;99.90;;;;;;4826054;29;20046;-81
2022/01/07 05:04:30;;;;;;;14.23;8.75;;;3.70;99.90;;;;;;4825840;29;20483;-81
2022/01/07 05:06:55;;;;;;;14.43;8.75;;;3.70;99.90;;;;;;4826100;29;20056;-81
2022/01/07 05:09:21;;;;;;;15.52;9.00;;;4.30;99.90;;;;;;4825978;29;20049;-81
2022/01/07 05:11:49;;;;;;;13.82;9.65;;;3.70;99.90;;;;;;4841069;29;20054;-81
2022/01/07 05:14:16;;;;;;;15.48;8.57;;;4.60;99.90;;;;;;4825043;29;20148;-79
2022/01/07 05:16:42;;;;;;;12.43;8.73;;;3.70;99.90;;;;;;4810895;29;20076;-79
2022/01/07 05:19:09;;;;;;;12.48;9.05;;;3.90;99.90;;;;;;4842043;29;20046;-79
2022/01/07 05:21:35;;;;;;;11.68;8.63;;;4.60;99.90;;;;;;4840710;29;20102;-79
2022/01/07 05:24:01;;;;;;;12.77;8.40;;;3.70;99.90;;;;;;4842028;29;20128;-79
2022/01/07 05:26:27;;;;;;;12.05;8.38;;;3.80;99.90;;;;;;4840876;29;20121;-79
2022/01/07 05:28:53;;;;;;;13.68;8.75;;;3.80;99.90;;;;;;4842126;29;20658;-79
2022/01/07 05:31:24;;;;;;;14.38;9.07;;;4.00;99.90;;;;;;4840696;29;20038;-78
2022/01/07 05:33:51;;;;;;;13.20;8.68;;;3.80;99.90;;;;;;4840599;29;20046;-78
2022/01/07 05:36:18;;;;;;;12.85;8.20;;;4.60;99.90;;;;;;4825717;29;20042;-78
2022/01/07 05:38:44;;;;;;;13.75;8.60;;;4.20;99.90;;;;;;4840558;29;20049;-78
2022/01/07 05:41:10;;;;;;;12.27;8.48;;;4.30;99.90;;;;;;4825647;29;20357;-78
2022/01/07 05:43:35;;;;;;;12.70;8.43;;;3.80;99.90;;;;;;4841949;29;20506;-78
2022/01/07 05:46:01;;;;;;;14.30;9.10;;;4.10;99.90;;;;;;4840645;29;20045;-78
2022/01/07 05:48:27;;;;;;;11.73;8.75;;;3.90;99.90;;;;;;4840682;29;20049;-79
2022/01/07 05:50:53;;;;;;;15.57;8.68;;;3.90;99.90;;;;;;4840064;29;20058;-79
2022/01/07 05:53:18;;;;;;;11.40;8.27;;;4.40;99.90;;;;;;4841978;29;20105;-79
2022/01/07 05:55:44;;;;;;;13.07;8.82;;;4.10;99.90;;;;;;4841725;29;20141;-78
2022/01/07 05:58:10;;;;;;;12.27;8.27;;;3.90;99.90;;;;;;4825233;29;20042;-78
2022/01/07 06:00:36;;;;;;;12.93;8.50;;;4.50;99.90;;;;;;4825216;29;20053;-78
2022/01/07 06:03:01;;;;;;;14.57;8.50;;;3.90;99.90;;;;;;4841925;29;20073;-78
2022/01/07 06:05:27;;;;;;;13.38;8.38;;;3.60;99.90;;;;;;4844056;29;20042;-78
2022/01/07 06:07:53;;;;;;;14.00;8.60;;;4.00;99.90;;;;;;4845092;29;20526;-78
2022/01/07 06:10:19;;;;;;;12.63;8.45;;;4.90;99.90;;;;;;4844771;29;20052;-78
2022/01/07 06:12:45;;;;;;;18.65;9.45;;;4.00;99.90;;;;;;4844713;29;20081;-78
2022/01/07 06:15:10;;;;;;;12.13;9.20;;;4.60;99.90;;;;;;4844981;29;20094;-78
2022/01/07 06:17:36;;;;;;;12.38;8.93;;;4.00;99.90;;;;;;4843988;29;20042;-78
2022/01/07 06:20:04;;;;;;;15.50;8.95;;;4.00;99.90;;;;;;4843721;29;20395;-78
2022/01/07 06:22:30;;;;;;;12.50;8.38;;;4.00;99.90;;;;;;4826801;29;20106;-78
2022/01/07 06:24:55;;;;;;;17.90;8.05;;;4.70;99.90;;;;;;4843509;29;20053;-78
2022/01/07 06:27:21;;;;;;;13.05;8.80;;;4.00;99.90;;;;;;4844576;29;20041;-77
2022/01/07 06:29:47;;;;;;;10.90;8.20;;;4.50;99.90;;;;;;4843389;29;20054;-78
2022/01/07 06:32:13;;;;;;;10.30;8.40;;;4.00;99.90;;;;;;4843078;29;20149;-78
2022/01/07 06:34:39;;;;;;;11.93;8.25;;;4.00;99.90;;;;;;4843331;29;20046;-78
2022/01/07 06:37:05;;;;;;;13.85;8.50;;;4.00;99.90;;;;;;4828091;29;20125;-78
2022/01/07 06:39:32;;;;;;;13.00;8.18;;;4.90;99.90;;;;;;4826802;29;20086;-78
2022/01/07 06:41:59;;;;;;;12.30;7.82;;;4.10;99.90;;;;;;4827894;29;20049;-78
2022/01/07 06:44:26;;;;;;;11.88;8.25;;;4.40;99.90;;;;;;4828289;29;20054;-78
2022/01/07 06:46:52;;;;;;;13.13;7.80;;;4.00;99.90;;;;;;4843182;29;20068;-78
2022/01/07 06:49:17;;;;;;;13.27;8.45;;;4.00;99.90;;;;;;4844598;29;20045;-78
2022/01/07 06:51:44;;;;;;;13.82;8.38;;;4.00;99.90;;;;;;4827701;29;20110;-80
2022/01/07 06:54:11;;;;;;;11.20;7.85;;;4.00;99.90;;;;;;4844532;29;20046;-81
2022/01/07 06:56:43;;;;;;;10.40;7.60;;;4.00;99.90;;;;;;4836534;29;20084;-80
2022/01/07 06:59:12;;;;;;;11.75;8.32;;;4.10;99.90;;;;;;4809592;29;20076;-80
2022/01/07 07:01:39;;;;;;;14.70;8.27;;;4.10;99.90;;;;;;4825932;29;20476;-80
2022/01/07 07:04:05;;;;;;;13.18;8.32;;;4.00;99.90;;;;;;4809992;29;20092;-80
2022/01/07 07:06:30;;;;;;;12.43;8.73;;;4.10;99.90;;;;;;4809324;29;20508;-81
2022/01/07 07:08:56;;;;;;;11.73;8.60;;;4.10;99.90;;;;;;4824445;29;20098;-80
2022/01/07 07:11:22;;;;;;;11.45;8.43;;;4.10;99.90;;;;;;4824473;29;20046;-80
2022/01/07 07:13:48;;;;;;;10.52;8.65;;;4.50;99.90;;;;;;4823037;29;20057;-80
2022/01/07 07:16:14;;;;;;;11.98;8.93;;;4.20;99.90;;;;;;4809191;29;20042;-80
2022/01/07 07:18:43;;;;;;;13.73;8.68;;;3.90;99.90;;;;;;4824412;29;20047;-80
2022/01/07 07:21:09;;;;;;;16.75;9.50;;;4.30;99.90;;;;;;4824213;29;20082;-80
2022/01/07 07:23:35;;;;;;;14.23;9.13;;;4.90;99.90;;;;;;4809497;29;20140;-81
2022/01/07 07:26:00;;;;;;;12.45;8.45;;;4.20;99.90;;;;;;4824306;29;20050;-80
2022/01/07 07:28:26;;;;;;;10.25;8.30;;;4.80;99.90;;;;;;4809209;29;20034;-80
2022/01/07 07:30:58;;;;;;;12.32;8.88;;;4.20;99.90;;;;;;4841362;29;20042;-80
2022/01/07 07:38:41;;;;;;;15.90;9.75;;;4.30;99.90;;;;;;4842218;29;20169;-80
2022/01/07 07:41:07;;;;;;;11.57;9.70;;;4.50;99.90;;;;;;4842577;29;20498;-80
2022/01/07 07:43:34;;;;;;;16.13;9.93;;;4.30;99.90;;;;;;4827387;29;20447;-79
2022/01/07 07:46:00;;;;;;;20.10;10.10;;;4.40;99.90;;;;;;4841403;29;20042;-80
2022/01/07 07:48:26;;;;;;;17.52;10.45;;;4.30;99.90;;;;;;4811826;29;20060;-81
2022/01/07 07:50:52;;;;;;;21.85;10.30;;;4.30;99.90;;;;;;4841970;29;20045;-80
2022/01/07 07:53:18;;;;;;;18.38;10.45;;;4.30;99.90;;;;;;4812106;29;20058;-80
2022/01/07 07:55:52;;;;;;;18.25;10.40;;;4.40;99.90;;;;;;4842203;29;20054;-80
2022/01/07 07:58:23;;;;;;;16.73;11.32;;;4.40;99.90;;;;;;4827116;29;20132;-80
2022/01/07 08:00:51;;;;;;;15.65;10.63;;;4.40;99.90;;;;;;4827043;29;20150;-80
2022/01/07 08:03:18;;;;;;;18.02;10.82;;;5.10;99.90;;;;;;4810867;29;20050;-81
2022/01/07 08:05:43;;;;;;;18.60;11.15;;;4.50;99.90;;;;;;4842003;29;20431;-81
2022/01/07 08:08:09;;;;;;;20.25;11.38;;;4.50;99.90;;;;;;4811987;29;20052;-81
2022/01/07 08:10:38;;;;;;;18.85;11.55;;;4.50;99.90;;;;;;4811521;29;20498;-81
2022/01/07 08:13:27;;;;;;;21.52;12.48;;;4.50;99.90;;;;;;4841778;29;20403;-81
2022/01/07 08:15:58;;;;;;;16.85;12.15;;;4.50;99.90;;;;;;4841745;29;20058;-81
2022/01/07 08:18:38;;;;;;;19.38;12.43;;;4.50;99.90;;;;;;4841843;29;20098;-81
2022/01/07 08:21:10;;;;;;;23.52;12.13;;;4.50;99.90;;;;;;4841351;29;20056;-81
2022/01/07 08:23:40;;;;;;;21.77;13.27;;;4.60;99.90;;;;;;4826167;29;20041;-81
2022/01/07 08:26:09;;;;;;;20.50;12.85;;;4.60;99.90;;;;;;4811052;29;20046;-81
2022/01/07 08:28:42;;;;;;;26.55;14.13;;;4.60;99.90;;;;;;4842778;29;20053;-80
2022/01/07 08:36:27;;;;;;;23.92;13.32;;;4.60;99.90;;;;;;4827478;29;20070;-81
2022/01/07 08:38:54;;;;;;;22.67;13.52;;;4.70;99.90;;;;;;4842157;29;20046;-81
2022/01/07 08:41:23;;;;;;;21.90;13.27;;;4.70;99.90;;;;;;4841228;29;20045;-81
2022/01/07 08:43:49;;;;;;;22.25;13.77;;;4.70;99.90;;;;;;4840922;29;20133;-81
2022/01/07 08:46:15;;;;;;;19.98;13.25;;;4.70;99.90;;;;;;4826169;29;20081;-80
2022/01/07 08:48:42;;;;;;;22.30;13.77;;;4.80;99.90;;;;;;4841218;29;20088;-82
2022/01/07 08:51:09;;;;;;;26.05;13.80;;;4.80;99.90;;;;;;4840943;29;20182;-81
2022/01/07 08:53:38;;;;;;;21.98;13.77;;;4.80;99.90;;;;;;4841336;29;20439;-82
2022/01/07 08:56:07;;;;;;;22.65;14.70;;;4.80;99.90;;;;;;4825047;29;20094;-82
2022/01/07 08:58:33;;;;;;;23.70;13.98;;;5.00;99.90;;;;;;4841208;29;20515;-82
2022/01/07 09:00:59;;;;;;;25.55;13.93;;;4.90;99.90;;;;;;4841147;29;20050;-82
2022/01/07 09:03:25;;;;;;;26.45;14.25;;;4.90;99.90;;;;;;4841023;29;20102;-82
2022/01/07 09:05:51;;;;;;;28.42;15.05;;;5.80;99.90;;;;;;4827289;29;20042;-81
2022/01/07 09:08:17;;;;;;;23.08;14.70;;;4.90;99.90;;;;;;4843467;29;20046;-81
2022/01/07 09:10:44;;;;;;;22.85;14.10;;;5.00;99.90;;;;;;4812541;29;20109;-81
2022/01/07 09:13:10;;;;;;;20.95;14.48;;;5.00;99.90;;;;;;4825478;29;20049;-81
2022/01/07 09:15:37;;;;;;;27.42;15.10;;;5.90;99.90;;;;;;4811013;29;20141;-82
2022/01/07 09:18:14;;;;;;;27.60;15.35;;;5.00;99.90;;;;;;4826580;29;20053;-82
2022/01/07 09:20:45;;;;;;;26.55;14.73;;;5.10;99.90;;;;;;4826431;29;20050;-82
2022/01/07 09:23:12;;;;;;;27.73;15.13;;;5.90;99.90;;;;;;4826947;29;20533;-82
2022/01/07 09:25:39;;;;;;;29.38;14.82;;;5.90;99.90;;;;;;4841878;29;20050;-81
2022/01/07 09:28:06;;;;;;;25.77;15.68;;;5.10;99.90;;;;;;4826715;29;20046;-81
2022/01/07 09:30:33;;;;;;;27.05;15.63;;;5.20;99.90;;;;;;4828429;29;20499;-82
2022/01/07 09:32:59;;;;;;;24.92;15.88;;;5.20;99.90;;;;;;4827986;29;20440;-82
2022/01/07 09:35:26;;;;;;;27.75;16.23;;;5.20;99.90;;;;;;4826731;29;20061;-81
2022/01/07 09:37:53;;;;;;;34.13;18.33;;;6.10;99.90;;;;;;4827318;29;20057;-81
2022/01/07 09:40:19;;;;;;;33.50;16.65;;;5.20;99.90;;;;;;4844610;29;20101;-81
2022/01/07 09:42:57;;;;;;;23.38;16.95;;;5.20;99.90;;;;;;4814310;29;20095;-81
2022/01/07 09:45:24;;;;;;;38.95;18.58;;;5.30;99.90;;;;;;4821960;29;20043;-81
2022/01/07 09:47:50;;;;;;;31.05;16.80;;;5.30;99.90;;;;;;4826005;29;20054;-81
2022/01/07 09:50:16;;;;;;;28.73;19.23;;;5.30;99.90;;;;;;4810962;29;20129;-81
2022/01/07 09:52:42;;;;;;;32.22;17.58;;;5.30;99.90;;;;;;4810390;29;20137;-81
2022/01/07 09:55:08;;;;;;;28.88;16.27;;;5.80;99.90;;;;;;4826086;29;20057;-81
2022/01/07 09:57:34;;;;;;;28.75;16.42;;;5.40;99.90;;;;;;4811503;29;20047;-82
2022/01/07 10:00:00;;;;;;;33.95;15.65;;;5.50;99.90;;;;;;4825790;29;20511;-82
2022/01/07 10:02:26;;;;;;;26.92;14.88;;;5.30;99.90;;;;;;4820324;29;20129;-82
2022/01/07 10:04:51;;;;;;;27.80;15.43;;;5.40;99.90;;;;;;4829736;29;20038;-82
2022/01/07 10:07:23;;;;;;;21.23;13.65;;;5.30;99.90;;;;;;4829320;29;20125;-82
2022/01/07 10:10:05;;;;;;;26.25;14.65;;;5.30;99.90;;;;;;4844225;29;20050;-81
2022/01/07 10:13:06;;;;;;;24.05;13.45;;;5.30;99.90;;;;;;4829270;29;20386;-82
2022/01/07 10:15:36;;;;;;;17.25;8.90;;;5.40;99.90;;;;;;4844586;29;20049;-81
2022/01/07 10:18:10;;;;;;;15.50;6.90;;;5.30;99.90;;;;;;4843275;29;20399;-81
2022/01/07 10:20:47;;;;;;;9.93;5.47;;;5.30;99.90;;;;;;4843703;29;20053;-82
2022/01/07 10:23:14;;;;;;;7.93;4.30;;;5.30;99.90;;;;;;4828763;29;20052;-83
2022/01/07 10:25:42;;;;;;;6.50;2.40;;;5.30;99.90;;;;;;4829437;29;20041;-82
2022/01/07 10:28:12;;;;;;;3.75;2.40;;;5.20;99.90;;;;;;4828512;29;20046;-82
2022/01/07 10:30:46;;;;;;;4.82;3.00;;;5.20;99.90;;;;;;4844097;29;20053;-82
2022/01/07 10:33:18;;;;;;;6.25;3.33;;;5.20;99.90;;;;;;4828444;29;20041;-82
2022/01/07 10:35:51;;;;;;;8.30;3.47;;;5.10;99.90;;;;;;4815594;29;20516;-82
2022/01/07 10:38:23;;;;;;;7.57;3.42;;;5.10;99.90;;;;;;4823361;29;20053;-82
2022/01/07 10:40:50;;;;;;;7.90;4.38;;;5.20;99.90;;;;;;4810502;29;20049;-83
2022/01/07 10:43:19;;;;;;;8.35;4.28;;;5.20;99.90;;;;;;4810094;29;20047;-82
2022/01/07 10:45:48;;;;;;;9.50;4.38;;;5.20;99.90;;;;;;4824144;29;20053;-82
2022/01/07 10:48:15;;;;;;;8.65;4.47;;;5.10;99.90;;;;;;4808790;29;20058;-82
2022/01/07 10:50:46;;;;;;;8.30;4.38;;;5.20;99.90;;;;;;4816415;29;20049;-82
2022/01/07 10:53:16;;;;;;;10.15;4.03;;;5.30;99.90;;;;;;4843634;29;20066;-82
2022/01/07 10:56:12;;;;;;;5.65;3.10;;;5.40;99.90;;;;;;4844302;29;20132;-82
2022/01/07 10:58:47;;;;;;;8.88;3.13;;;5.30;99.90;;;;;;4828340;29;20058;-82
2022/01/07 11:01:22;;;;;;;5.00;2.90;;;5.30;99.90;;;;;;4828165;29;20045;-83
2022/01/07 11:03:53;;;;;;;4.33;2.80;;;5.30;99.90;;;;;;4843171;29;20386;-83
2022/01/07 11:06:20;;;;;;;8.65;2.80;;;5.30;99.90;;;;;;4819194;29;20575;-82
2022/01/07 11:08:51;;;;;;;9.10;2.83;;;5.20;99.90;;;;;;4792403;29;20115;-82
2022/01/07 11:11:19;;;;;;;10.05;2.83;;;5.20;99.90;;;;;;4807875;29;20507;-82
2022/01/07 11:13:45;;;;;;;9.63;2.20;;;5.40;99.90;;;;;;4793183;29;20411;-82
2022/01/07 11:16:11;;;;;;;9.07;2.15;;;5.20;99.90;;;;;;4823644;29;20050;-83
2022/01/07 11:18:38;;;;;;;6.97;2.10;;;5.20;99.90;;;;;;4807697;29;20046;-82
2022/01/07 11:21:06;;;;;;;7.75;2.22;;;5.20;99.90;;;;;;4792935;29;20050;-82
2022/01/07 11:23:33;;;;;;;8.57;2.53;;;5.40;99.90;;;;;;4794143;29;20113;-82
2022/01/07 11:26:04;;;;;;;5.97;1.92;;;5.20;99.90;;;;;;4827779;29;20049;-83
2022/01/07 11:28:30;;;;;;;6.18;2.70;;;5.20;99.90;;;;;;4827325;29;20042;-82
2022/01/07 11:31:13;;;;;;;5.88;2.60;;;5.20;99.90;;;;;;4842687;29;20050;-82
2022/01/07 11:33:40;;;;;;;9.77;4.03;;;5.20;99.90;;;;;;4827851;29;20049;-81
2022/01/07 11:36:11;;;;;;;11.50;3.60;;;5.20;99.90;;;;;;4827802;29;20057;-83
2022/01/07 11:38:46;;;;;;;10.27;3.78;;;5.70;99.90;;;;;;4843469;29;20395;-82
2022/01/07 11:42:07;;;;;;;14.05;5.10;;;5.20;99.90;;;;;;4826972;29;20046;-83
2022/01/07 11:44:33;;;;;;;15.05;4.53;;;5.30;99.90;;;;;;4808530;29;20054;-82
2022/01/07 11:47:23;;;;;;;12.90;5.03;;;5.30;99.90;;;;;;4827119;29;20053;-83
2022/01/07 11:50:07;;;;;;;16.17;6.00;;;5.30;99.90;;;;;;4842548;29;20046;-83
2022/01/07 11:52:37;;;;;;;12.10;5.70;;;5.30;99.90;;;;;;4826921;29;20384;-83
2022/01/07 11:55:26;;;;;;;13.15;5.80;;;5.30;99.90;;;;;;4826850;29;20062;-83
2022/01/07 11:57:58;;;;;;;15.90;6.80;;;5.40;99.90;;;;;;4824756;29;20049;-83
2022/01/07 12:00:52;;;;;;;13.68;7.35;;;5.40;99.90;;;;;;4823731;29;20054;-82
2022/01/07 12:03:54;;;;;;;12.00;6.97;;;5.40;99.90;;;;;;4824318;29;20475;-82
2022/01/07 12:06:23;;;;;;;14.30;6.95;;;5.40;99.90;;;;;;4824062;29;20399;-82
2022/01/07 12:09:05;;;;;;;13.77;7.30;;;5.50;99.90;;;;;;4825208;29;20050;-82
2022/01/07 12:11:43;;;;;;;18.85;7.75;;;5.50;99.90;;;;;;4823885;29;20164;-81
2022/01/07 12:14:15;;;;;;;17.02;7.63;;;5.60;99.90;;;;;;4824061;29;20042;-82
2022/01/07 12:16:44;;;;;;;22.00;8.55;;;5.70;99.90;;;;;;4857297;29;20050;-82
2022/01/07 12:19:23;;;;;;;16.65;8.23;;;5.70;99.90;;;;;;4843545;29;20099;-82
2022/01/07 12:21:58;;;;;;;19.08;8.25;;;5.70;99.90;;;;;;4827637;29;20655;-83
2022/01/07 12:24:29;;;;;;;17.73;9.20;;;5.70;99.90;;;;;;4843496;29;20131;-83
2022/01/07 12:27:04;;;;;;;17.70;9.07;;;5.70;99.90;;;;;;4827719;29;20125;-83
2022/01/07 12:29:37;;;;;;;18.67;8.30;;;5.70;99.90;;;;;;4827053;29;20057;-82
2022/01/07 12:32:05;;;;;;;15.43;8.57;;;5.80;99.90;;;;;;4825475;29;20057;-83
2022/01/07 12:34:37;;;;;;;18.17;8.55;;;5.80;99.90;;;;;;4826829;29;20081;-83
2022/01/07 12:37:05;;;;;;;18.25;7.85;;;5.80;99.90;;;;;;4828137;29;20141;-82
2022/01/07 12:39:34;;;;;;;21.17;8.00;;;5.80;99.90;;;;;;4826970;29;20380;-83
2022/01/07 12:42:00;;;;;;;20.80;8.85;;;5.80;99.90;;;;;;4841286;29;20125;-83
2022/01/07 12:44:37;;;;;;;22.77;8.23;;;5.80;99.90;;;;;;4842810;29;20407;-82
2022/01/07 12:47:04;;;;;;;15.27;7.13;;;5.80;99.90;;;;;;4840663;29;20042;-82
2022/01/07 12:49:37;;;;;;;17.30;6.53;;;5.70;99.90;;;;;;4810941;29;20049;-82
2022/01/07 12:52:06;;;;;;;14.85;6.28;;;5.70;99.90;;;;;;4842113;29;20107;-82
2022/01/07 12:54:32;;;;;;;17.30;6.32;;;5.70;99.90;;;;;;4825853;29;20406;-81
2022/01/07 12:56:58;;;;;;;14.63;5.75;;;5.80;99.90;;;;;;4826349;29;20141;-81
2022/01/07 12:59:25;;;;;;;11.63;5.70;;;5.70;99.90;;;;;;4826670;29;20110;-83
2022/01/07 13:01:52;;;;;;;15.20;5.65;;;5.70;99.90;;;;;;4826436;29;20044;-82